sensor_id;sensor_type;location;lat;lon;timestamp;P1;durP1;ratioP1;P2;durP2;ratioP2
47239;SDS011;32978;53.586;10.052;2023-04-15T00:01:14;9.02;;;6.93;;
47239;SDS011;32978;53.586;10.052;2023-04-15T00:07:21;12.33;;;8.70;;
47239;SDS011;32978;53.586;10.052;2023-04-15T00:12:32;8.75;;;7.45;;
47239;SDS011;32978;53.586;10.052;2023-04-15T00:17:50;8.00;;;7.05;;
47239;SDS011;32978;53.586;10.052;2023-04-15T00:24:27;8.32;;;7.35;;
47239;SDS011;32978;53.586;10.052;2023-04-15T00:30:37;9.43;;;8.05;;
47239;SDS011;32978;53.586;10.052;2023-04-15T00:36:35;8.68;;;7.18;;
47239;SDS011;32978;53.586;10.052;2023-04-15T00:41:40;8.20;;;6.72;;
47239;SDS011;32978;53.586;10.052;2023-04-15T00:46:38;7.47;;;6.35;;
47239;SDS011;32978;53.586;10.052;2023-04-15T00:51:37;8.43;;;7.13;;
47239;SDS011;32978;53.586;10.052;2023-04-15T00:56:48;7.90;;;6.78;;
47239;SDS011;32978;53.586;10.052;2023-04-15T01:01:45;7.05;;;6.13;;
47239;SDS011;32978;53.586;10.052;2023-04-15T01:06:42;7.63;;;6.45;;
47239;SDS011;32978;53.586;10.052;2023-04-15T01:11:38;7.13;;;6.40;;
47239;SDS011;32978;53.586;10.052;2023-04-15T01:16:58;7.35;;;6.60;;
47239;SDS011;32978;53.586;10.052;2023-04-15T01:22:44;12.05;;;7.60;;
47239;SDS011;32978;53.586;10.052;2023-04-15T01:27:40;8.57;;;7.60;;
47239;SDS011;32978;53.586;10.052;2023-04-15T01:32:37;9.07;;;7.72;;
47239;SDS011;32978;53.586;10.052;2023-04-15T01:37:34;10.80;;;7.60;;
47239;SDS011;32978;53.586;10.052;2023-04-15T01:42:31;8.98;;;8.10;;
47239;SDS011;32978;53.586;10.052;2023-04-15T01:47:28;9.32;;;8.18;;
47239;SDS011;32978;53.586;10.052;2023-04-15T01:52:25;8.88;;;7.97;;
47239;SDS011;32978;53.586;10.052;2023-04-15T01:57:21;11.48;;;9.65;;
47239;SDS011;32978;53.586;10.052;2023-04-15T02:02:18;11.73;;;8.32;;
47239;SDS011;32978;53.586;10.052;2023-04-15T02:07:15;9.55;;;8.32;;
47239;SDS011;32978;53.586;10.052;2023-04-15T02:12:11;12.95;;;10.63;;
47239;SDS011;32978;53.586;10.052;2023-04-15T02:17:08;12.77;;;10.57;;
47239;SDS011;32978;53.586;10.052;2023-04-15T02:22:05;12.73;;;11.02;;
47239;SDS011;32978;53.586;10.052;2023-04-15T02:27:04;13.05;;;10.75;;
47239;SDS011;32978;53.586;10.052;2023-04-15T02:32:01;12.18;;;10.35;;
47239;SDS011;32978;53.586;10.052;2023-04-15T02:36:57;13.82;;;10.85;;
47239;SDS011;32978;53.586;10.052;2023-04-15T02:41:54;11.73;;;9.93;;
47239;SDS011;32978;53.586;10.052;2023-04-15T02:46:50;13.50;;;10.27;;
47239;SDS011;32978;53.586;10.052;2023-04-15T02:51:48;12.07;;;10.32;;
47239;SDS011;32978;53.586;10.052;2023-04-15T02:56:46;14.93;;;10.85;;
47239;SDS011;32978;53.586;10.052;2023-04-15T03:01:42;16.70;;;12.43;;
47239;SDS011;32978;53.586;10.052;2023-04-15T03:06:39;16.17;;;12.13;;
47239;SDS011;32978;53.586;10.052;2023-04-15T03:11:35;17.85;;;13.57;;
47239;SDS011;32978;53.586;10.052;2023-04-15T03:16:35;16.38;;;13.23;;
47239;SDS011;32978;53.586;10.052;2023-04-15T03:21:32;21.70;;;16.02;;
47239;SDS011;32978;53.586;10.052;2023-04-15T03:26:29;19.88;;;14.73;;
47239;SDS011;32978;53.586;10.052;2023-04-15T03:31:26;20.10;;;15.27;;
47239;SDS011;32978;53.586;10.052;2023-04-15T03:36:23;28.30;;;17.02;;
47239;SDS011;32978;53.586;10.052;2023-04-15T03:41:19;21.33;;;15.90;;
47239;SDS011;32978;53.586;10.052;2023-04-15T03:46:19;21.73;;;15.65;;
47239;SDS011;32978;53.586;10.052;2023-04-15T03:51:16;22.70;;;15.98;;
47239;SDS011;32978;53.586;10.052;2023-04-15T03:56:23;22.75;;;15.15;;
47239;SDS011;32978;53.586;10.052;2023-04-15T04:09:06;26.20;;;16.33;;
47239;SDS011;32978;53.586;10.052;2023-04-15T04:14:33;24.10;;;15.68;;
47239;SDS011;32978;53.586;10.052;2023-04-15T04:19:30;21.95;;;15.27;;
47239;SDS011;32978;53.586;10.052;2023-04-15T04:24:26;21.17;;;14.65;;
47239;SDS011;32978;53.586;10.052;2023-04-15T04:29:25;24.48;;;17.20;;
47239;SDS011;32978;53.586;10.052;2023-04-15T04:34:26;22.23;;;15.18;;
47239;SDS011;32978;53.586;10.052;2023-04-15T04:39:24;24.48;;;16.75;;
47239;SDS011;32978;53.586;10.052;2023-04-15T04:44:37;26.63;;;17.52;;
47239;SDS011;32978;53.586;10.052;2023-04-15T04:50:01;30.52;;;19.42;;
47239;SDS011;32978;53.586;10.052;2023-04-15T04:54:58;34.45;;;22.13;;
47239;SDS011;32978;53.586;10.052;2023-04-15T04:59:55;33.80;;;21.75;;
47239;SDS011;32978;53.586;10.052;2023-04-15T05:04:51;49.05;;;26.45;;
47239;SDS011;32978;53.586;10.052;2023-04-15T05:09:49;40.38;;;23.65;;
47239;SDS011;32978;53.586;10.052;2023-04-15T05:14:46;47.58;;;26.70;;
47239;SDS011;32978;53.586;10.052;2023-04-15T05:19:42;43.28;;;24.77;;
47239;SDS011;32978;53.586;10.052;2023-04-15T05:24:42;41.83;;;26.45;;
47239;SDS011;32978;53.586;10.052;2023-04-15T05:37:32;47.10;;;28.10;;
47239;SDS011;32978;53.586;10.052;2023-04-15T05:56:06;41.17;;;25.42;;
47239;SDS011;32978;53.586;10.052;2023-04-15T06:01:39;43.90;;;27.15;;
47239;SDS011;32978;53.586;10.052;2023-04-15T06:07:34;39.03;;;25.48;;
47239;SDS011;32978;53.586;10.052;2023-04-15T06:12:32;44.17;;;27.20;;
47239;SDS011;32978;53.586;10.052;2023-04-15T06:35:03;40.70;;;27.38;;
47239;SDS011;32978;53.586;10.052;2023-04-15T06:40:00;48.13;;;28.70;;
47239;SDS011;32978;53.586;10.052;2023-04-15T06:44:56;57.08;;;32.33;;
47239;SDS011;32978;53.586;10.052;2023-04-15T06:55:17;39.17;;;26.75;;
47239;SDS011;32978;53.586;10.052;2023-04-15T07:00:13;48.28;;;30.40;;
47239;SDS011;32978;53.586;10.052;2023-04-15T07:05:10;51.55;;;32.92;;
47239;SDS011;32978;53.586;10.052;2023-04-15T07:10:07;41.15;;;28.45;;
47239;SDS011;32978;53.586;10.052;2023-04-15T07:15:05;65.68;;;38.38;;
47239;SDS011;32978;53.586;10.052;2023-04-15T07:20:02;53.40;;;32.42;;
47239;SDS011;32978;53.586;10.052;2023-04-15T07:24:59;54.50;;;32.40;;
47239;SDS011;32978;53.586;10.052;2023-04-15T07:29:56;53.70;;;31.77;;
47239;SDS011;32978;53.586;10.052;2023-04-15T07:34:52;54.63;;;34.42;;
47239;SDS011;32978;53.586;10.052;2023-04-15T07:39:58;54.53;;;33.05;;
47239;SDS011;32978;53.586;10.052;2023-04-15T07:45:37;48.22;;;29.88;;
47239;SDS011;32978;53.586;10.052;2023-04-15T07:50:33;45.22;;;29.80;;
47239;SDS011;32978;53.586;10.052;2023-04-15T07:55:30;48.63;;;28.92;;
47239;SDS011;32978;53.586;10.052;2023-04-15T08:00:27;51.13;;;31.77;;
47239;SDS011;32978;53.586;10.052;2023-04-15T08:05:23;47.47;;;32.20;;
47239;SDS011;32978;53.586;10.052;2023-04-15T08:10:20;41.40;;;29.40;;
47239;SDS011;32978;53.586;10.052;2023-04-15T08:15:17;43.90;;;29.60;;
47239;SDS011;32978;53.586;10.052;2023-04-15T08:20:14;47.88;;;29.65;;
47239;SDS011;32978;53.586;10.052;2023-04-15T08:25:10;59.88;;;36.05;;
47239;SDS011;32978;53.586;10.052;2023-04-15T08:30:07;48.33;;;31.23;;
47239;SDS011;32978;53.586;10.052;2023-04-15T08:35:04;56.55;;;34.40;;
47239;SDS011;32978;53.586;10.052;2023-04-15T08:40:01;46.85;;;32.55;;
47239;SDS011;32978;53.586;10.052;2023-04-15T08:44:58;46.28;;;31.25;;
47239;SDS011;32978;53.586;10.052;2023-04-15T08:49:56;46.38;;;31.95;;
47239;SDS011;32978;53.586;10.052;2023-04-15T08:54:56;50.05;;;31.52;;
47239;SDS011;32978;53.586;10.052;2023-04-15T08:59:55;46.65;;;30.63;;
47239;SDS011;32978;53.586;10.052;2023-04-15T09:04:52;55.78;;;34.42;;
47239;SDS011;32978;53.586;10.052;2023-04-15T09:09:49;45.40;;;32.03;;
47239;SDS011;32978;53.586;10.052;2023-04-15T09:14:46;52.50;;;32.55;;
47239;SDS011;32978;53.586;10.052;2023-04-15T09:19:44;48.22;;;31.40;;
47239;SDS011;32978;53.586;10.052;2023-04-15T09:24:41;44.53;;;30.90;;
47239;SDS011;32978;53.586;10.052;2023-04-15T09:29:40;54.25;;;34.60;;
47239;SDS011;32978;53.586;10.052;2023-04-15T09:34:36;43.47;;;31.08;;
47239;SDS011;32978;53.586;10.052;2023-04-15T09:39:49;56.28;;;36.03;;
47239;SDS011;32978;53.586;10.052;2023-04-15T09:44:47;44.10;;;30.95;;
47239;SDS011;32978;53.586;10.052;2023-04-15T09:49:53;48.75;;;30.15;;
47239;SDS011;32978;53.586;10.052;2023-04-15T09:54:52;38.08;;;27.80;;
47239;SDS011;32978;53.586;10.052;2023-04-15T09:59:51;42.63;;;27.75;;
47239;SDS011;32978;53.586;10.052;2023-04-15T10:04:47;36.65;;;24.58;;
47239;SDS011;32978;53.586;10.052;2023-04-15T10:09:45;37.08;;;25.58;;
47239;SDS011;32978;53.586;10.052;2023-04-15T10:14:42;37.88;;;27.00;;
47239;SDS011;32978;53.586;10.052;2023-04-15T10:19:39;35.95;;;25.23;;
47239;SDS011;32978;53.586;10.052;2023-04-15T10:24:36;29.63;;;21.90;;
47239;SDS011;32978;53.586;10.052;2023-04-15T10:29:34;28.67;;;21.42;;
47239;SDS011;32978;53.586;10.052;2023-04-15T10:34:31;24.23;;;19.08;;
47239;SDS011;32978;53.586;10.052;2023-04-15T10:39:38;30.50;;;19.85;;
47239;SDS011;32978;53.586;10.052;2023-04-15T10:44:36;25.08;;;19.15;;
47239;SDS011;32978;53.586;10.052;2023-04-15T10:49:34;24.60;;;18.50;;
47239;SDS011;32978;53.586;10.052;2023-04-15T10:54:37;19.77;;;16.35;;
47239;SDS011;32978;53.586;10.052;2023-04-15T10:59:35;18.42;;;16.38;;
47239;SDS011;32978;53.586;10.052;2023-04-15T11:09:48;15.70;;;14.02;;
47239;SDS011;32978;53.586;10.052;2023-04-15T11:14:45;16.67;;;12.85;;
47239;SDS011;32978;53.586;10.052;2023-04-15T11:19:41;15.93;;;13.90;;
47239;SDS011;32978;53.586;10.052;2023-04-15T11:24:47;11.00;;;9.90;;
47239;SDS011;32978;53.586;10.052;2023-04-15T11:29:47;14.48;;;12.98;;
47239;SDS011;32978;53.586;10.052;2023-04-15T11:34:44;14.90;;;13.38;;
47239;SDS011;32978;53.586;10.052;2023-04-15T11:39:41;17.02;;;14.45;;
47239;SDS011;32978;53.586;10.052;2023-04-15T11:44:38;16.08;;;14.38;;
47239;SDS011;32978;53.586;10.052;2023-04-15T11:49:34;18.65;;;14.48;;
47239;SDS011;32978;53.586;10.052;2023-04-15T11:54:35;15.25;;;13.73;;
47239;SDS011;32978;53.586;10.052;2023-04-15T11:59:42;15.00;;;13.50;;
47239;SDS011;32978;53.586;10.052;2023-04-15T12:04:41;13.38;;;12.13;;
47239;SDS011;32978;53.586;10.052;2023-04-15T12:09:38;16.35;;;12.95;;
47239;SDS011;32978;53.586;10.052;2023-04-15T12:14:35;16.58;;;13.35;;
47239;SDS011;32978;53.586;10.052;2023-04-15T12:19:37;12.55;;;11.32;;
47239;SDS011;32978;53.586;10.052;2023-04-15T12:24:36;14.77;;;12.88;;
47239;SDS011;32978;53.586;10.052;2023-04-15T12:29:34;12.65;;;11.05;;
47239;SDS011;32978;53.586;10.052;2023-04-15T12:34:42;13.50;;;11.52;;
47239;SDS011;32978;53.586;10.052;2023-04-15T12:39:41;14.20;;;12.48;;
47239;SDS011;32978;53.586;10.052;2023-04-15T12:44:38;16.75;;;12.27;;
47239;SDS011;32978;53.586;10.052;2023-04-15T12:49:35;14.38;;;12.88;;
47239;SDS011;32978;53.586;10.052;2023-04-15T12:54:32;11.70;;;10.52;;
47239;SDS011;32978;53.586;10.052;2023-04-15T12:59:30;13.07;;;11.18;;
47239;SDS011;32978;53.586;10.052;2023-04-15T13:04:26;13.95;;;12.55;;
47239;SDS011;32978;53.586;10.052;2023-04-15T13:09:25;16.80;;;11.95;;
47239;SDS011;32978;53.586;10.052;2023-04-15T13:14:22;11.85;;;10.75;;
47239;SDS011;32978;53.586;10.052;2023-04-15T13:19:18;16.77;;;13.43;;
47239;SDS011;32978;53.586;10.052;2023-04-15T13:24:15;14.85;;;12.88;;
47239;SDS011;32978;53.586;10.052;2023-04-15T13:29:11;13.35;;;12.00;;
47239;SDS011;32978;53.586;10.052;2023-04-15T13:34:09;12.48;;;10.60;;
47239;SDS011;32978;53.586;10.052;2023-04-15T13:39:05;13.35;;;12.05;;
47239;SDS011;32978;53.586;10.052;2023-04-15T13:44:02;13.35;;;11.68;;
47239;SDS011;32978;53.586;10.052;2023-04-15T13:48:58;13.45;;;12.15;;
47239;SDS011;32978;53.586;10.052;2023-04-15T13:53:55;13.00;;;11.65;;
47239;SDS011;32978;53.586;10.052;2023-04-15T13:58:53;12.73;;;10.65;;
47239;SDS011;32978;53.586;10.052;2023-04-15T14:03:54;12.20;;;11.13;;
47239;SDS011;32978;53.586;10.052;2023-04-15T14:08:50;14.65;;;11.10;;
47239;SDS011;32978;53.586;10.052;2023-04-15T14:13:48;10.60;;;9.48;;
47239;SDS011;32978;53.586;10.052;2023-04-15T14:18:44;11.23;;;10.13;;
47239;SDS011;32978;53.586;10.052;2023-04-15T14:23:43;13.60;;;12.00;;
47239;SDS011;32978;53.586;10.052;2023-04-15T14:28:39;12.82;;;11.52;;
47239;SDS011;32978;53.586;10.052;2023-04-15T14:33:36;13.32;;;12.00;;
47239;SDS011;32978;53.586;10.052;2023-04-15T14:38:33;12.57;;;10.57;;
47239;SDS011;32978;53.586;10.052;2023-04-15T14:43:33;13.35;;;10.00;;
47239;SDS011;32978;53.586;10.052;2023-04-15T14:48:30;10.25;;;9.25;;
47239;SDS011;32978;53.586;10.052;2023-04-15T14:53:27;10.45;;;9.25;;
47239;SDS011;32978;53.586;10.052;2023-04-15T14:58:23;10.88;;;9.70;;
47239;SDS011;32978;53.586;10.052;2023-04-15T15:03:20;11.10;;;10.00;;
47239;SDS011;32978;53.586;10.052;2023-04-15T15:08:17;10.25;;;9.27;;
47239;SDS011;32978;53.586;10.052;2023-04-15T15:13:13;12.18;;;10.98;;
47239;SDS011;32978;53.586;10.052;2023-04-15T15:18:10;11.93;;;10.57;;
47239;SDS011;32978;53.586;10.052;2023-04-15T15:23:07;11.52;;;10.25;;
47239;SDS011;32978;53.586;10.052;2023-04-15T15:28:04;10.60;;;9.57;;
47239;SDS011;32978;53.586;10.052;2023-04-15T15:33:01;11.52;;;9.73;;
47239;SDS011;32978;53.586;10.052;2023-04-15T15:37:58;11.88;;;10.65;;
47239;SDS011;32978;53.586;10.052;2023-04-15T15:42:55;13.10;;;11.27;;
47239;SDS011;32978;53.586;10.052;2023-04-15T15:47:52;13.02;;;10.70;;
47239;SDS011;32978;53.586;10.052;2023-04-15T15:52:48;14.63;;;11.68;;
47239;SDS011;32978;53.586;10.052;2023-04-15T15:57:45;13.20;;;10.55;;
47239;SDS011;32978;53.586;10.052;2023-04-15T16:02:42;13.38;;;11.93;;
47239;SDS011;32978;53.586;10.052;2023-04-15T16:07:41;13.10;;;11.15;;
47239;SDS011;32978;53.586;10.052;2023-04-15T16:12:38;15.00;;;12.80;;
47239;SDS011;32978;53.586;10.052;2023-04-15T16:17:34;13.30;;;11.48;;
47239;SDS011;32978;53.586;10.052;2023-04-15T16:22:32;16.30;;;12.50;;
47239;SDS011;32978;53.586;10.052;2023-04-15T16:27:30;18.75;;;14.02;;
47239;SDS011;32978;53.586;10.052;2023-04-15T16:32:26;15.63;;;12.80;;
47239;SDS011;32978;53.586;10.052;2023-04-15T16:37:23;24.30;;;14.18;;
47239;SDS011;32978;53.586;10.052;2023-04-15T16:42:19;18.80;;;14.95;;
47239;SDS011;32978;53.586;10.052;2023-04-15T16:47:16;16.20;;;14.18;;
47239;SDS011;32978;53.586;10.052;2023-04-15T16:52:12;18.55;;;15.73;;
47239;SDS011;32978;53.586;10.052;2023-04-15T16:57:09;17.30;;;14.45;;
47239;SDS011;32978;53.586;10.052;2023-04-15T17:02:06;20.65;;;16.02;;
47239;SDS011;32978;53.586;10.052;2023-04-15T17:07:06;20.52;;;15.77;;
47239;SDS011;32978;53.586;10.052;2023-04-15T17:12:04;20.08;;;15.00;;
47239;SDS011;32978;53.586;10.052;2023-04-15T17:17:01;16.52;;;14.80;;
47239;SDS011;32978;53.586;10.052;2023-04-15T17:21:58;18.65;;;15.25;;
47239;SDS011;32978;53.586;10.052;2023-04-15T17:26:54;23.95;;;15.32;;
47239;SDS011;32978;53.586;10.052;2023-04-15T17:31:51;19.05;;;14.90;;
47239;SDS011;32978;53.586;10.052;2023-04-15T17:36:49;17.17;;;15.27;;
47239;SDS011;32978;53.586;10.052;2023-04-15T17:41:48;18.33;;;15.05;;
47239;SDS011;32978;53.586;10.052;2023-04-15T17:46:45;20.70;;;16.00;;
47239;SDS011;32978;53.586;10.052;2023-04-15T17:51:42;20.75;;;16.98;;
47239;SDS011;32978;53.586;10.052;2023-04-15T17:56:40;25.50;;;16.63;;
47239;SDS011;32978;53.586;10.052;2023-04-15T18:01:36;22.52;;;15.38;;
47239;SDS011;32978;53.586;10.052;2023-04-15T18:06:34;21.90;;;18.33;;
47239;SDS011;32978;53.586;10.052;2023-04-15T18:11:33;24.23;;;17.85;;
47239;SDS011;32978;53.586;10.052;2023-04-15T18:16:30;22.05;;;17.23;;
47239;SDS011;32978;53.586;10.052;2023-04-15T18:21:27;25.20;;;18.08;;
47239;SDS011;32978;53.586;10.052;2023-04-15T18:26:24;24.67;;;20.25;;
47239;SDS011;32978;53.586;10.052;2023-04-15T18:31:21;24.02;;;19.33;;
47239;SDS011;32978;53.586;10.052;2023-04-15T18:36:18;23.08;;;18.77;;
47239;SDS011;32978;53.586;10.052;2023-04-15T18:41:14;22.23;;;17.35;;
47239;SDS011;32978;53.586;10.052;2023-04-15T18:46:14;19.35;;;16.75;;
47239;SDS011;32978;53.586;10.052;2023-04-15T18:51:12;23.98;;;16.75;;
47239;SDS011;32978;53.586;10.052;2023-04-15T18:56:08;22.63;;;16.83;;
47239;SDS011;32978;53.586;10.052;2023-04-15T19:01:05;23.40;;;16.58;;
47239;SDS011;32978;53.586;10.052;2023-04-15T19:06:02;20.83;;;16.67;;
47239;SDS011;32978;53.586;10.052;2023-04-15T19:10:59;22.85;;;16.30;;
47239;SDS011;32978;53.586;10.052;2023-04-15T19:15:56;25.30;;;17.52;;
47239;SDS011;32978;53.586;10.052;2023-04-15T19:20:52;23.17;;;18.55;;
47239;SDS011;32978;53.586;10.052;2023-04-15T19:25:51;23.35;;;17.25;;
47239;SDS011;32978;53.586;10.052;2023-04-15T19:30:47;22.80;;;16.80;;
47239;SDS011;32978;53.586;10.052;2023-04-15T19:35:44;20.08;;;15.75;;
47239;SDS011;32978;53.586;10.052;2023-04-15T19:40:45;19.90;;;16.05;;
47239;SDS011;32978;53.586;10.052;2023-04-15T19:45:42;24.92;;;16.27;;
47239;SDS011;32978;53.586;10.052;2023-04-15T19:50:41;20.63;;;15.90;;
47239;SDS011;32978;53.586;10.052;2023-04-15T19:55:38;23.23;;;16.35;;
47239;SDS011;32978;53.586;10.052;2023-04-15T20:00:35;23.38;;;16.88;;
47239;SDS011;32978;53.586;10.052;2023-04-15T20:05:32;22.52;;;16.98;;
47239;SDS011;32978;53.586;10.052;2023-04-15T20:10:29;27.90;;;17.60;;
47239;SDS011;32978;53.586;10.052;2023-04-15T20:15:27;22.85;;;17.02;;
47239;SDS011;32978;53.586;10.052;2023-04-15T20:20:24;23.60;;;16.85;;
47239;SDS011;32978;53.586;10.052;2023-04-15T20:25:20;20.85;;;16.23;;
47239;SDS011;32978;53.586;10.052;2023-04-15T20:30:17;20.77;;;16.60;;
47239;SDS011;32978;53.586;10.052;2023-04-15T20:35:14;23.15;;;15.82;;
47239;SDS011;32978;53.586;10.052;2023-04-15T20:40:12;22.08;;;16.58;;
47239;SDS011;32978;53.586;10.052;2023-04-15T20:45:10;21.80;;;16.20;;
47239;SDS011;32978;53.586;10.052;2023-04-15T20:50:07;21.70;;;15.70;;
47239;SDS011;32978;53.586;10.052;2023-04-15T20:55:08;23.40;;;15.43;;
47239;SDS011;32978;53.586;10.052;2023-04-15T21:00:05;23.55;;;15.30;;
47239;SDS011;32978;53.586;10.052;2023-04-15T21:05:04;25.08;;;16.88;;
47239;SDS011;32978;53.586;10.052;2023-04-15T21:10:01;28.23;;;14.85;;
47239;SDS011;32978;53.586;10.052;2023-04-15T21:14:57;21.65;;;16.40;;
47239;SDS011;32978;53.586;10.052;2023-04-15T21:19:54;21.02;;;14.27;;
47239;SDS011;32978;53.586;10.052;2023-04-15T21:24:51;22.40;;;15.68;;
47239;SDS011;32978;53.586;10.052;2023-04-15T21:29:47;23.40;;;14.68;;
47239;SDS011;32978;53.586;10.052;2023-04-15T21:34:45;21.13;;;14.65;;
47239;SDS011;32978;53.586;10.052;2023-04-15T21:39:42;23.33;;;16.83;;
47239;SDS011;32978;53.586;10.052;2023-04-15T21:44:40;23.63;;;16.35;;
47239;SDS011;32978;53.586;10.052;2023-04-15T21:49:38;28.35;;;15.20;;
47239;SDS011;32978;53.586;10.052;2023-04-15T21:54:35;24.00;;;16.35;;
47239;SDS011;32978;53.586;10.052;2023-04-15T21:59:33;22.70;;;16.35;;
47239;SDS011;32978;53.586;10.052;2023-04-15T22:04:29;25.65;;;17.42;;
47239;SDS011;32978;53.586;10.052;2023-04-15T22:09:26;21.73;;;15.00;;
47239;SDS011;32978;53.586;10.052;2023-04-15T22:14:23;24.80;;;15.82;;
47239;SDS011;32978;53.586;10.052;2023-04-15T22:19:20;24.08;;;14.73;;
47239;SDS011;32978;53.586;10.052;2023-04-15T22:24:17;20.58;;;14.50;;
47239;SDS011;32978;53.586;10.052;2023-04-15T22:29:34;24.60;;;15.60;;
47239;SDS011;32978;53.586;10.052;2023-04-15T22:34:31;22.30;;;16.33;;
47239;SDS011;32978;53.586;10.052;2023-04-15T22:39:29;29.23;;;18.23;;
47239;SDS011;32978;53.586;10.052;2023-04-15T22:44:25;23.65;;;16.23;;
47239;SDS011;32978;53.586;10.052;2023-04-15T22:49:21;24.25;;;16.40;;
47239;SDS011;32978;53.586;10.052;2023-04-15T22:54:19;23.88;;;16.02;;
47239;SDS011;32978;53.586;10.052;2023-04-15T22:59:16;22.48;;;14.82;;
47239;SDS011;32978;53.586;10.052;2023-04-15T23:04:12;29.65;;;18.58;;
47239;SDS011;32978;53.586;10.052;2023-04-15T23:09:22;24.58;;;16.30;;
47239;SDS011;32978;53.586;10.052;2023-04-15T23:14:18;23.05;;;16.27;;
47239;SDS011;32978;53.586;10.052;2023-04-15T23:19:15;24.25;;;16.88;;
47239;SDS011;32978;53.586;10.052;2023-04-15T23:24:21;27.23;;;17.88;;
47239;SDS011;32978;53.586;10.052;2023-04-15T23:29:19;24.65;;;16.67;;
47239;SDS011;32978;53.586;10.052;2023-04-15T23:34:41;25.10;;;18.23;;
47239;SDS011;32978;53.586;10.052;2023-04-15T23:39:47;23.13;;;16.13;;
47239;SDS011;32978;53.586;10.052;2023-04-15T23:51:25;23.27;;;15.65;;
47239;SDS011;32978;53.586;10.052;2023-04-15T23:56:22;23.45;;;16.27;;
